Time;durP1;ratioP1;P1;durP2;ratioP2;P2;SDS_P1;SDS_P2;PMS_P1;PMS_P2;Temp;Humidity;BMP_temperature;BMP_pressure;BME280_temperature;BME280_humidity;BME280_pressure;Samples;Min_cycle;Max_cycle;Signal;HPM_P1;HPM_P2
2024/03/29 00:02:12;;;;;;;0.80;0.40;;;;;;;6.41;86.54;95264.89;108220;1274;22631;-72
2024/03/29 00:04:45;;;;;;;0.40;0.20;;;;;;;6.33;86.49;95294.70;108188;1280;25434;-73
2024/03/29 00:07:18;;;;;;;0.30;0.20;;;;;;;6.26;86.60;95294.36;108128;1276;24207;-73
2024/03/29 00:09:53;;;;;;;0.10;0.10;;;;;;;6.16;86.68;95298.42;108268;1279;22537;-73
2024/03/29 00:12:26;;;;;;;0.60;0.30;;;;;;;6.05;86.56;95321.23;108197;1279;24384;-73
2024/03/29 00:14:57;;;;;;;0.20;0.20;;;;;;;5.98;86.51;95326.95;108310;1277;22575;-73
2024/03/29 00:17:30;;;;;;;1.90;0.40;;;;;;;5.92;86.51;95342.42;108334;1271;22533;-74
2024/03/29 00:20:06;;;;;;;0.10;0.00;;;;;;;5.85;86.65;95334.03;108338;1275;23799;-73
2024/03/29 00:22:39;;;;;;;2.20;0.60;;;;;;;5.79;86.06;95348.16;108322;1278;22578;-73
2024/03/29 00:25:12;;;;;;;0.50;0.20;;;;;;;5.78;85.82;95354.64;108351;1278;24869;-73
2024/03/29 00:27:43;;;;;;;0.20;0.10;;;;;;;5.78;86.30;95358.64;108244;1278;23932;-73
2024/03/29 00:30:20;;;;;;;1.20;0.40;;;;;;;5.77;86.12;95359.59;108295;1278;25356;-73
2024/03/29 00:32:53;;;;;;;2.00;0.40;;;;;;;5.80;85.91;95365.77;108348;1278;22546;-73
2024/03/29 00:35:24;;;;;;;2.80;0.40;;;;;;;5.82;85.61;95373.52;108227;1276;22659;-73
2024/03/29 00:37:56;;;;;;;0.30;0.20;;;;;;;5.86;85.79;95373.06;108402;1278;22529;-73
2024/03/29 00:40:29;;;;;;;0.80;0.50;;;;;;;5.86;85.85;95381.02;108369;1279;26786;-74
2024/03/29 00:43:05;;;;;;;1.70;0.60;;;;;;;5.88;85.68;95386.23;108293;1279;22529;-74
2024/03/29 00:45:35;;;;;;;0.20;0.20;;;;;;;5.88;86.22;95386.29;108307;1276;22520;-74
2024/03/29 00:48:07;;;;;;;0.20;0.20;;;;;;;5.86;85.75;95404.98;108267;1278;22708;-73
2024/03/29 00:50:39;;;;;;;1.50;0.30;;;;;;;5.83;85.69;95406.18;108339;1279;23501;-74
2024/03/29 00:53:10;;;;;;;0.90;0.50;;;;;;;5.83;85.72;95412.45;108365;1279;22524;-73
2024/03/29 00:55:40;;;;;;;0.70;0.20;;;;;;;5.85;85.61;95412.73;108363;1271;25416;-73
2024/03/29 00:58:13;;;;;;;0.80;0.20;;;;;;;5.84;85.95;95416.48;108372;1278;23287;-73
2024/03/29 01:00:44;;;;;;;1.30;0.40;;;;;;;5.83;85.86;95418.70;108303;1278;22656;-73
2024/03/29 01:03:17;;;;;;;0.50;0.30;;;;;;;5.82;86.18;95421.39;108327;1279;22528;-74
2024/03/29 01:05:50;;;;;;;1.50;0.40;;;;;;;5.82;86.29;95424.13;108295;1279;22530;-74
2024/03/29 01:08:23;;;;;;;1.40;0.40;;;;;;;5.82;86.60;95434.39;108389;1278;24027;-73
2024/03/29 01:10:57;;;;;;;0.20;0.20;;;;;;;5.81;86.38;95438.34;108365;1258;22532;-73
2024/03/29 01:13:30;;;;;;;1.20;0.40;;;;;;;5.82;86.26;95445.95;108411;1278;22525;-73
2024/03/29 01:16:04;;;;;;;0.70;0.30;;;;;;;5.84;86.46;95448.36;108137;1274;22531;-73
2024/03/29 01:18:35;;;;;;;0.50;0.40;;;;;;;5.85;86.65;95445.50;108142;1279;22518;-73
2024/03/29 01:21:06;;;;;;;1.30;0.30;;;;;;;5.85;86.70;95448.23;108191;1258;25248;-74
2024/03/29 01:23:41;;;;;;;1.10;0.50;;;;;;;5.88;86.61;95446.84;108195;1280;22569;-73
2024/03/29 01:26:12;;;;;;;0.80;0.40;;;;;;;5.89;86.43;95452.52;108227;1279;23310;-74
2024/03/29 01:28:44;;;;;;;0.50;0.30;;;;;;;5.89;86.27;95461.67;108169;1277;25451;-73
2024/03/29 01:31:17;;;;;;;0.70;0.50;;;;;;;5.89;86.05;95470.72;108114;1280;24299;-74
2024/03/29 01:33:48;;;;;;;1.70;0.50;;;;;;;5.85;85.81;95463.55;108121;1279;22586;-73
2024/03/29 01:36:19;;;;;;;0.50;0.30;;;;;;;5.79;86.02;95458.45;108109;1273;22528;-74
2024/03/29 01:38:54;;;;;;;1.00;0.40;;;;;;;5.76;86.13;95459.04;108186;1274;25466;-74
2024/03/29 01:41:26;;;;;;;0.90;0.60;;;;;;;5.73;86.17;95466.59;108216;1280;22635;-73
2024/03/29 01:43:58;;;;;;;2.00;0.40;;;;;;;5.71;86.23;95472.86;108241;1279;22521;-73
2024/03/29 01:46:31;;;;;;;1.40;0.40;;;;;;;5.70;86.20;95478.03;108166;1281;22699;-73
2024/03/29 01:49:05;;;;;;;1.60;0.60;;;;;;;5.69;86.22;95478.77;108110;1280;26250;-73
2024/03/29 01:51:40;;;;;;;0.30;0.30;;;;;;;5.66;86.30;95485.27;108205;1276;22536;-73
2024/03/29 01:54:12;;;;;;;1.30;0.40;;;;;;;5.62;86.62;95482.06;108187;1280;23013;-73
2024/03/29 01:56:43;;;;;;;1.40;0.40;;;;;;;5.60;87.18;95492.60;108122;1262;22550;-73
2024/03/29 01:59:17;;;;;;;0.60;0.30;;;;;;;5.56;87.56;95500.52;108195;1277;22536;-73
2024/03/29 02:01:50;;;;;;;1.10;0.90;;;;;;;5.56;87.80;95512.31;108266;1280;22540;-73
2024/03/29 02:04:21;;;;;;;0.90;0.40;;;;;;;5.54;87.92;95521.46;108219;1277;22527;-73
2024/03/29 02:06:53;;;;;;;1.00;0.60;;;;;;;5.52;87.96;95531.31;108183;1279;23846;-73
2024/03/29 02:09:25;;;;;;;0.80;0.40;;;;;;;5.50;87.80;95539.06;108183;1280;25374;-73
2024/03/29 02:11:56;;;;;;;0.40;0.30;;;;;;;5.50;87.90;95543.89;108233;1265;22536;-73
2024/03/29 02:14:28;;;;;;;2.70;0.60;;;;;;;5.50;87.79;95551.73;108277;1277;22883;-74
2024/03/29 02:17:02;;;;;;;0.60;0.30;;;;;;;5.50;87.93;95563.08;108342;1278;22567;-73
2024/03/29 02:19:34;;;;;;;0.50;0.50;;;;;;;5.49;88.13;95571.48;108360;1276;22728;-73
2024/03/29 02:22:07;;;;;;;1.00;0.50;;;;;;;5.48;88.51;95585.31;108382;1276;26189;-73
2024/03/29 02:24:42;;;;;;;1.00;0.40;;;;;;;5.46;88.32;95598.63;108449;1278;22527;-73
2024/03/29 02:27:16;;;;;;;1.90;0.50;;;;;;;5.44;88.11;95607.95;108406;1272;22908;-73
2024/03/29 02:29:50;;;;;;;0.50;0.30;;;;;;;5.42;88.15;95614.04;108406;1275;22598;-73
2024/03/29 02:32:21;;;;;;;1.50;0.60;;;;;;;5.44;88.01;95615.56;108340;1278;22534;-73
2024/03/29 02:34:55;;;;;;;0.50;0.50;;;;;;;5.43;88.13;95608.30;108344;1278;26569;-73
2024/03/29 02:37:26;;;;;;;1.20;0.80;;;;;;;5.43;88.65;95619.88;108388;1278;22637;-73
2024/03/29 02:39:57;;;;;;;0.80;0.50;;;;;;;5.43;88.39;95626.55;108407;1272;22548;-73
2024/03/29 02:42:31;;;;;;;0.80;0.50;;;;;;;5.45;88.50;95640.46;108398;1272;22574;-74
2024/03/29 02:45:02;;;;;;;1.70;0.70;;;;;;;5.48;88.45;95644.60;108325;1279;22561;-74
2024/03/29 02:47:35;;;;;;;1.00;0.60;;;;;;;5.46;88.25;95644.79;108326;1278;22697;-73
2024/03/29 02:50:10;;;;;;;0.70;0.60;;;;;;;5.46;88.07;95649.77;108385;1268;23289;-73
2024/03/29 02:52:41;;;;;;;0.60;0.40;;;;;;;5.47;87.94;95647.87;108396;1277;23926;-73
2024/03/29 02:55:15;;;;;;;2.30;0.90;;;;;;;5.45;87.74;95657.77;108326;1278;24073;-73
2024/03/29 02:57:48;;;;;;;1.60;0.60;;;;;;;5.41;87.71;95662.47;108387;1279;24278;-73
2024/03/29 03:00:19;;;;;;;1.20;0.40;;;;;;;5.37;87.75;95671.21;108406;1262;22585;-73
2024/03/29 03:02:50;;;;;;;1.00;0.50;;;;;;;5.33;87.78;95684.87;108325;1279;22586;-73
2024/03/29 03:05:21;;;;;;;1.20;0.80;;;;;;;5.30;87.77;95684.09;108324;1279;25479;-74
2024/03/29 03:10:59;;;;;;;0.70;0.50;;;;;;;5.27;87.90;95703.02;108304;1276;22476;-74
2024/03/29 03:13:33;;;;;;;0.70;0.50;;;;;;;5.28;87.93;95710.65;108391;1279;22648;-74
2024/03/29 03:16:04;;;;;;;0.60;0.60;;;;;;;5.26;87.88;95719.02;108312;1278;22521;-73
2024/03/29 03:18:35;;;;;;;0.80;0.50;;;;;;;5.30;87.82;95725.35;108406;1279;23037;-73
2024/03/29 03:21:06;;;;;;;1.00;0.50;;;;;;;5.30;87.94;95731.88;108352;1279;23149;-73
2024/03/29 03:23:37;;;;;;;1.00;0.70;;;;;;;5.33;87.92;95737.21;108319;1278;22763;-73
2024/03/29 03:26:08;;;;;;;1.10;0.70;;;;;;;5.39;88.03;95735.44;108372;1278;25438;-71
2024/03/29 03:28:39;;;;;;;0.90;0.50;;;;;;;5.43;87.59;95741.98;108341;1278;22526;-71
2024/03/29 03:31:10;;;;;;;1.40;0.70;;;;;;;5.44;87.18;95742.25;108353;1279;24383;-71
2024/03/29 03:33:41;;;;;;;1.60;0.80;;;;;;;5.45;86.97;95751.19;108332;1279;22553;-70
2024/03/29 03:36:11;;;;;;;0.70;0.50;;;;;;;5.48;86.92;95756.33;108362;1277;22554;-71
2024/03/29 03:38:46;;;;;;;1.10;0.50;;;;;;;5.52;86.63;95750.66;108371;1269;25493;-71
2024/03/29 03:41:19;;;;;;;0.70;0.60;;;;;;;5.55;86.11;95750.48;108330;1278;23024;-72
2024/03/29 03:43:50;;;;;;;0.70;0.70;;;;;;;5.56;86.01;95747.22;108311;1278;25633;-73
2024/03/29 03:46:23;;;;;;;1.60;0.70;;;;;;;5.57;85.56;95752.42;108316;1275;22541;-73
2024/03/29 03:48:54;;;;;;;1.00;0.50;;;;;;;5.52;85.28;95745.92;108369;1273;23842;-74
2024/03/29 03:51:25;;;;;;;1.10;0.70;;;;;;;5.45;85.23;95752.50;108368;1278;22536;-73
2024/03/29 03:53:57;;;;;;;1.10;0.40;;;;;;;5.39;85.21;95762.56;108397;1274;25446;-74
2024/03/29 03:56:27;;;;;;;1.10;0.50;;;;;;;5.30;84.86;95763.94;108387;1278;22594;-74
2024/03/29 03:58:58;;;;;;;1.10;0.60;;;;;;;5.23;84.99;95765.58;108334;1273;25031;-71
2024/03/29 04:01:31;;;;;;;1.30;0.50;;;;;;;5.17;84.96;95766.31;108363;1278;22532;-71
2024/03/29 04:04:04;;;;;;;1.00;0.70;;;;;;;5.13;84.93;95773.30;108386;1279;23823;-71
2024/03/29 04:06:35;;;;;;;1.00;0.30;;;;;;;5.10;84.99;95771.32;108223;1279;22659;-72
2024/03/29 04:09:10;;;;;;;0.90;0.60;;;;;;;5.04;85.02;95772.73;108410;1278;22703;-73
2024/03/29 04:11:50;;;;;;;1.40;0.50;;;;;;;4.99;84.98;95776.93;108364;1273;22795;-73
2024/03/29 04:14:22;;;;;;;1.60;0.50;;;;;;;4.96;85.28;95785.51;108321;1279;23984;-74
2024/03/29 04:16:55;;;;;;;0.90;0.50;;;;;;;4.94;85.26;95795.59;108320;1273;22529;-74
2024/03/29 04:19:27;;;;;;;1.00;0.60;;;;;;;4.96;85.25;95798.17;108244;1256;22579;-73
2024/03/29 04:22:00;;;;;;;1.20;0.50;;;;;;;4.96;85.27;95795.27;108247;1278;22532;-74
2024/03/29 04:24:34;;;;;;;1.20;0.40;;;;;;;4.96;85.14;95800.58;108296;1276;22605;-73
2024/03/29 04:27:07;;;;;;;1.00;0.50;;;;;;;4.95;85.21;95810.77;108278;1257;22522;-73
2024/03/29 04:29:38;;;;;;;2.20;0.60;;;;;;;4.92;85.02;95819.00;108403;1258;22677;-74
2024/03/29 04:32:14;;;;;;;1.20;0.60;;;;;;;4.87;85.12;95825.05;108262;1278;22658;-72
2024/03/29 04:34:47;;;;;;;1.10;0.60;;;;;;;4.87;85.25;95829.19;108303;1272;22604;-72
2024/03/29 04:37:18;;;;;;;0.50;0.50;;;;;;;4.87;85.30;95822.99;108366;1279;25371;-72
2024/03/29 04:39:49;;;;;;;0.60;0.40;;;;;;;4.98;85.75;95822.52;108400;1279;23955;-72
2024/03/29 04:42:20;;;;;;;0.40;0.30;;;;;;;5.37;85.83;95823.38;108352;1274;22833;-73
2024/03/29 04:44:52;;;;;;;0.70;0.50;;;;;;;5.81;85.90;95816.48;108316;1274;24285;-72
2024/03/29 04:47:25;;;;;;;1.20;0.40;;;;;;;6.29;85.61;95818.44;108316;1273;22540;-72
2024/03/29 04:49:56;;;;;;;0.80;0.50;;;;;;;6.77;85.16;95820.41;108314;1278;22540;-73
2024/03/29 04:52:27;;;;;;;1.30;0.60;;;;;;;7.25;84.38;95829.63;108357;1278;23000;-72
2024/03/29 04:54:58;;;;;;;1.30;0.60;;;;;;;7.57;83.38;95834.69;108324;1273;25424;-73
2024/03/29 04:57:29;;;;;;;1.30;0.70;;;;;;;7.96;82.53;95846.71;108342;1276;22545;-73
2024/03/29 05:00:00;;;;;;;0.90;0.60;;;;;;;8.32;81.53;95853.67;108273;1273;22544;-72
2024/03/29 05:02:35;;;;;;;1.30;0.60;;;;;;;8.68;80.39;95856.63;108334;1273;23376;-73
2024/03/29 05:05:11;;;;;;;0.70;0.60;;;;;;;8.97;79.22;95850.91;108245;1278;59737;-72
2024/03/29 05:07:50;;;;;;;1.10;0.70;;;;;;;9.21;77.60;95852.09;108406;1278;25227;-73
2024/03/29 05:10:23;;;;;;;2.00;0.60;;;;;;;9.53;76.76;95865.52;108296;1277;23160;-73
2024/03/29 05:12:57;;;;;;;2.40;0.70;;;;;;;9.71;74.87;95870.61;108362;1279;22531;-73
2024/03/29 05:15:30;;;;;;;0.60;0.60;;;;;;;9.95;74.37;95868.67;108357;1277;26457;-73
2024/03/29 05:18:01;;;;;;;0.60;0.50;;;;;;;10.22;73.47;95872.39;108299;1276;22528;-72
2024/03/29 05:20:39;;;;;;;0.70;0.50;;;;;;;10.48;72.37;95878.95;108384;1273;22523;-73
2024/03/29 05:23:14;;;;;;;1.10;0.50;;;;;;;10.55;70.63;95868.23;108343;1273;25008;-72
2024/03/29 05:25:45;;;;;;;2.00;0.70;;;;;;;10.39;68.21;95868.11;108310;1276;22936;-72
2024/03/29 05:28:19;;;;;;;1.10;0.50;;;;;;;10.32;67.65;95860.77;108354;1273;22568;-73
2024/03/29 05:30:52;;;;;;;1.90;0.80;;;;;;;10.61;67.94;95873.83;108215;1271;22643;-73
2024/03/29 05:33:25;;;;;;;1.20;0.70;;;;;;;10.96;67.42;95883.92;108364;1273;25250;-73
2024/03/29 05:36:06;;;;;;;2.20;0.80;;;;;;;11.38;65.96;95889.59;108190;1276;22529;-73
2024/03/29 05:38:40;;;;;;;1.40;0.90;;;;;;;11.61;65.18;95896.57;108405;1270;22522;-73
2024/03/29 05:41:13;;;;;;;0.50;0.50;;;;;;;12.05;64.68;95899.03;108295;1273;24268;-74
2024/03/29 05:43:44;;;;;;;0.70;0.60;;;;;;;12.34;63.55;95893.92;108346;1273;22695;-73
2024/03/29 05:46:15;;;;;;;1.70;1.00;;;;;;;12.70;63.33;95884.15;108345;1276;22553;-73
2024/03/29 05:48:46;;;;;;;1.70;0.80;;;;;;;13.31;63.09;95894.08;108304;1279;22517;-73
2024/03/29 05:51:20;;;;;;;0.90;0.60;;;;;;;13.98;62.03;95898.45;108349;1271;22589;-73
2024/03/29 05:53:51;;;;;;;1.10;0.70;;;;;;;14.38;60.81;95904.75;108300;1273;22534;-73
2024/03/29 05:56:26;;;;;;;1.00;0.60;;;;;;;14.56;59.17;95905.17;108333;1279;22541;-73
2024/03/29 05:58:59;;;;;;;1.10;0.70;;;;;;;14.79;58.76;95903.44;108327;1277;24197;-74
2024/03/29 06:01:32;;;;;;;1.50;0.90;;;;;;;15.18;58.02;95904.34;108357;1278;22523;-73
2024/03/29 06:04:11;;;;;;;0.80;0.50;;;;;;;15.59;57.39;95913.86;108327;1278;22546;-74
2024/03/29 06:06:43;;;;;;;1.30;0.80;;;;;;;16.05;56.34;95916.64;108235;1277;194085;-74
2024/03/29 06:09:17;;;;;;;0.70;0.60;;;;;;;16.42;55.37;95932.46;108289;1272;24451;-74
2024/03/29 06:11:55;;;;;;;1.40;0.70;;;;;;;16.56;53.73;95932.80;108287;1273;22989;-74
2024/03/29 06:17:25;;;;;;;1.50;0.90;;;;;;;16.82;52.26;95940.61;108268;1272;22656;-73
2024/03/29 06:20:02;;;;;;;1.40;0.90;;;;;;;16.75;51.45;95942.05;108390;1273;22661;-74
2024/03/29 06:22:36;;;;;;;1.10;0.90;;;;;;;17.37;51.68;95936.46;108324;1277;24025;-74
2024/03/29 06:25:09;;;;;;;0.90;0.70;;;;;;;17.93;51.43;95933.14;108321;1277;40849;-73
2024/03/29 06:27:43;;;;;;;1.10;0.60;;;;;;;18.83;51.34;95934.86;108366;1273;22522;-74
2024/03/29 06:30:15;;;;;;;3.20;0.70;;;;;;;19.54;49.67;95935.48;108365;1277;22530;-73
2024/03/29 06:32:48;;;;;;;1.90;0.50;;;;;;;19.80;48.84;95932.35;108421;1273;22522;-74
2024/03/29 06:35:20;;;;;;;1.30;0.80;;;;;;;19.72;46.28;95928.56;108362;1277;33729;-74
2024/03/29 06:37:51;;;;;;;1.30;0.60;;;;;;;19.20;45.88;95924.51;108455;1277;24221;-74
2024/03/29 06:40:22;;;;;;;1.50;0.80;;;;;;;19.12;43.75;95911.75;108404;1276;25413;-74
2024/03/29 06:42:56;;;;;;;0.90;0.70;;;;;;;18.51;44.64;95901.36;108440;1277;22723;-74
2024/03/29 06:45:27;;;;;;;0.80;0.50;;;;;;;18.47;44.01;95900.06;108341;1277;25478;-74
2024/03/29 06:48:00;;;;;;;1.20;0.80;;;;;;;18.48;44.42;95894.93;108379;1273;22562;-74
2024/03/29 06:50:31;;;;;;;1.80;0.70;;;;;;;18.65;44.47;95894.98;108247;1277;25281;-74
2024/03/29 06:53:02;;;;;;;1.20;0.60;;;;;;;18.89;42.52;95890.57;108417;1270;22519;-74
2024/03/29 06:55:36;;;;;;;0.80;0.70;;;;;;;18.49;42.46;95892.67;108350;1271;22545;-73
2024/03/29 06:58:10;;;;;;;0.80;0.70;;;;;;;18.54;42.93;95895.40;108364;1278;25329;-73
2024/03/29 07:00:41;;;;;;;1.70;1.10;;;;;;;18.96;42.35;95891.05;108373;1274;22532;-74
2024/03/29 07:03:12;;;;;;;1.50;0.60;;;;;;;19.25;41.69;95896.07;108435;1277;22542;-73
2024/03/29 07:05:43;;;;;;;2.20;0.90;;;;;;;19.18;42.01;95897.29;108370;1277;22638;-74
2024/03/29 07:08:15;;;;;;;0.70;0.50;;;;;;;19.62;41.80;95895.71;108419;1271;22519;-74
2024/03/29 07:10:47;;;;;;;1.10;0.50;;;;;;;20.31;41.65;95905.03;108322;1278;25073;-74
2024/03/29 07:13:17;;;;;;;1.00;0.60;;;;;;;20.45;40.69;95910.90;108376;1276;22521;-74
2024/03/29 07:15:54;;;;;;;1.30;0.50;;;;;;;20.56;39.53;95910.94;108339;1277;25417;-74
2024/03/29 07:18:29;;;;;;;1.60;0.60;;;;;;;20.60;39.23;95910.08;108354;1271;24007;-74
2024/03/29 07:21:00;;;;;;;0.50;0.40;;;;;;;20.80;38.93;95902.32;108379;1277;25301;-74
2024/03/29 07:23:33;;;;;;;0.70;0.50;;;;;;;20.95;38.59;95906.25;108342;1271;22537;-73
2024/03/29 07:26:05;;;;;;;0.70;0.70;;;;;;;21.48;39.18;95900.86;108382;1271;22707;-74
2024/03/29 07:28:36;;;;;;;1.00;0.50;;;;;;;21.99;38.35;95889.93;108343;1277;22535;-74
2024/03/29 07:31:10;;;;;;;2.10;0.60;;;;;;;22.29;36.68;95883.78;108366;1255;22529;-74
2024/03/29 07:33:41;;;;;;;1.10;0.70;;;;;;;22.36;37.17;95872.66;108300;1271;22592;-74
2024/03/29 07:36:12;;;;;;;1.10;0.60;;;;;;;22.80;37.56;95866.61;108268;1271;23329;-73
2024/03/29 07:38:43;;;;;;;1.10;0.50;;;;;;;23.49;36.84;95861.18;108271;1273;23086;-74
2024/03/29 07:41:15;;;;;;;2.10;0.60;;;;;;;23.75;35.43;95862.33;108316;1272;22595;-74
2024/03/29 07:43:59;;;;;;;0.70;0.50;;;;;;;23.46;35.24;95879.72;108390;1278;25304;-74
2024/03/29 07:46:36;;;;;;;1.30;0.60;;;;;;;23.46;34.54;95875.79;108427;1271;24338;-74
2024/03/29 07:49:07;;;;;;;2.10;0.70;;;;;;;23.29;34.79;95872.59;108471;1278;22584;-74
2024/03/29 07:51:39;;;;;;;1.70;0.50;;;;;;;23.07;33.66;95868.15;108410;1278;22535;-74
2024/03/29 07:54:10;;;;;;;0.60;0.50;;;;;;;22.74;34.12;95862.71;108491;1278;22812;-74
2024/03/29 07:56:46;;;;;;;0.60;0.50;;;;;;;23.22;34.66;95862.05;108473;1278;22584;-74
2024/03/29 07:59:23;;;;;;;1.10;0.50;;;;;;;24.03;34.64;95869.14;108415;1271;24495;-73
2024/03/29 08:01:55;;;;;;;1.50;0.70;;;;;;;24.92;34.46;95882.02;108486;1278;22589;-73
2024/03/29 08:04:26;;;;;;;0.60;0.50;;;;;;;24.88;33.04;95885.13;108390;1278;25471;-73
2024/03/29 08:06:57;;;;;;;1.30;0.80;;;;;;;24.65;32.97;95884.20;108461;1278;24918;-74
2024/03/29 08:09:28;;;;;;;0.60;0.50;;;;;;;24.70;31.91;95894.96;108402;1276;23918;-74
2024/03/29 08:12:00;;;;;;;0.90;0.70;;;;;;;24.42;31.30;95900.59;108418;1275;22689;-73
2024/03/29 08:14:32;;;;;;;1.00;0.60;;;;;;;23.85;31.50;95899.33;108260;1276;23090;-74
2024/03/29 08:17:06;;;;;;;1.00;0.60;;;;;;;23.60;31.73;95900.45;108307;1278;29677;-73
2024/03/29 08:19:38;;;;;;;0.90;0.50;;;;;;;24.03;32.03;95909.14;108385;1278;22503;-74
2024/03/29 08:22:14;;;;;;;1.20;0.40;;;;;;;24.10;31.56;95916.52;108413;1276;22538;-73
2024/03/29 08:24:45;;;;;;;0.90;0.40;;;;;;;23.51;30.29;95923.26;108390;1271;22542;-73
2024/03/29 08:27:16;;;;;;;0.60;0.30;;;;;;;22.03;30.94;95921.98;108291;1271;22618;-73
2024/03/29 08:29:50;;;;;;;1.30;0.30;;;;;;;21.32;31.35;95924.37;108317;1271;25440;-73
2024/03/29 08:32:22;;;;;;;0.60;0.50;;;;;;;20.54;32.54;95927.84;108422;1278;22595;-74
2024/03/29 08:34:55;;;;;;;0.80;0.20;;;;;;;20.83;33.36;95928.08;108283;1278;22546;-74
2024/03/29 08:37:27;;;;;;;1.00;0.40;;;;;;;21.28;32.66;95931.95;108327;1272;22540;-73
2024/03/29 08:40:00;;;;;;;1.10;0.60;;;;;;;20.58;32.81;95936.48;108390;1277;22651;-74
2024/03/29 08:42:37;;;;;;;0.80;0.30;;;;;;;19.84;33.63;95941.33;108361;1277;24317;-74
2024/03/29 08:45:09;;;;;;;0.80;0.40;;;;;;;19.16;33.02;95948.06;108324;1277;24358;-73
2024/03/29 08:47:42;;;;;;;2.40;0.40;;;;;;;18.33;34.46;95942.41;108363;1271;22798;-73
2024/03/29 08:50:13;;;;;;;1.10;0.40;;;;;;;18.78;35.23;95947.61;108427;1277;22590;-73
2024/03/29 08:52:49;;;;;;;1.20;0.50;;;;;;;19.59;34.90;95947.94;108476;1277;22564;-73
2024/03/29 08:55:20;;;;;;;1.30;0.20;;;;;;;19.81;33.60;95948.11;108421;1277;24964;-74
2024/03/29 08:57:53;;;;;;;0.60;0.30;;;;;;;18.74;33.38;95939.35;108404;1277;22583;-73
2024/03/29 09:00:24;;;;;;;0.90;0.40;;;;;;;17.18;35.06;95950.37;108330;1271;23849;-74
2024/03/29 09:02:56;;;;;;;0.70;0.30;;;;;;;16.75;36.61;95954.98;108401;1277;25302;-73
2024/03/29 09:05:28;;;;;;;0.70;0.40;;;;;;;16.53;36.98;95956.70;108386;1277;22552;-72
2024/03/29 09:07:59;;;;;;;0.40;0.20;;;;;;;16.24;37.64;95966.89;108448;1271;22526;-73
2024/03/29 09:10:30;;;;;;;0.60;0.20;;;;;;;16.11;36.96;95960.02;108423;1277;25299;-73
2024/03/29 09:13:01;;;;;;;0.80;0.30;;;;;;;15.53;37.46;95956.20;108402;1277;22536;-73
2024/03/29 09:15:31;;;;;;;1.70;0.40;;;;;;;15.45;38.67;95962.41;108293;1257;23424;-73
2024/03/29 09:18:09;;;;;;;0.80;0.30;;;;;;;15.62;39.06;95956.73;108386;1271;22540;-73
2024/03/29 09:20:42;;;;;;;0.90;0.60;;;;;;;15.44;38.37;95951.98;108391;1271;25430;-73
2024/03/29 09:23:17;;;;;;;1.40;0.50;;;;;;;15.14;38.62;95940.17;108356;1277;23399;-73
2024/03/29 09:25:47;;;;;;;0.20;0.20;;;;;;;14.81;38.97;95943.87;108341;1271;24168;-74
2024/03/29 09:28:28;;;;;;;0.60;0.30;;;;;;;14.78;39.29;95943.19;108412;1271;22519;-73
2024/03/29 09:31:03;;;;;;;2.00;0.50;;;;;;;14.78;38.78;95948.38;108333;1272;22547;-73
2024/03/29 09:33:37;;;;;;;0.50;0.20;;;;;;;14.62;37.86;95954.84;108375;1271;25334;-73
2024/03/29 09:36:10;;;;;;;0.70;0.40;;;;;;;14.32;38.61;95948.84;108324;1277;25252;-74
2024/03/29 09:38:46;;;;;;;1.50;0.40;;;;;;;14.28;39.55;95950.95;108405;1278;22594;-73
2024/03/29 09:41:18;;;;;;;0.20;0.20;;;;;;;14.37;39.93;95949.89;108377;1277;22649;-73
2024/03/29 09:43:54;;;;;;;0.70;0.20;;;;;;;14.40;39.82;95938.65;108238;1271;22514;-74
2024/03/29 09:46:26;;;;;;;1.70;0.50;;;;;;;14.37;39.79;95940.27;108370;1278;23745;-74
2024/03/29 09:49:00;;;;;;;0.50;0.30;;;;;;;14.43;40.14;95938.34;108352;1276;22529;-74
2024/03/29 09:51:37;;;;;;;0.90;0.50;;;;;;;14.47;40.01;95935.14;108370;1278;24315;-74
2024/03/29 09:54:12;;;;;;;0.60;0.30;;;;;;;14.57;40.32;95943.56;108393;1278;23289;-73
2024/03/29 09:56:44;;;;;;;0.50;0.20;;;;;;;14.67;39.55;95938.55;108389;1278;25415;-74
2024/03/29 09:59:15;;;;;;;0.90;0.20;;;;;;;14.73;38.26;95937.50;108366;1272;22570;-74
2024/03/29 10:01:50;;;;;;;1.20;0.40;;;;;;;14.69;38.62;95931.94;108406;1276;24694;-73
2024/03/29 10:04:24;;;;;;;0.80;0.10;;;;;;;14.75;38.25;95935.13;108368;1278;22519;-73
2024/03/29 10:06:57;;;;;;;1.60;0.50;;;;;;;14.69;37.75;95948.55;108417;1278;22649;-73
2024/03/29 10:09:33;;;;;;;1.40;0.40;;;;;;;14.70;37.27;95947.30;108397;1275;22552;-73
2024/03/29 10:12:05;;;;;;;1.50;0.40;;;;;;;14.71;37.44;95939.92;108364;1275;24224;-74
2024/03/29 10:14:49;;;;;;;0.60;0.20;;;;;;;14.78;38.05;95946.58;108431;1277;25334;-75
2024/03/29 10:17:24;;;;;;;2.20;0.50;;;;;;;14.81;37.81;95945.02;108408;1276;22544;-72
2024/03/29 10:20:00;;;;;;;1.10;0.40;;;;;;;14.71;37.68;95940.23;108408;1278;22521;-73
2024/03/29 10:22:43;;;;;;;0.50;0.30;;;;;;;14.61;37.84;95945.01;108370;1278;25249;-73
2024/03/29 10:25:15;;;;;;;0.40;0.30;;;;;;;14.67;37.91;95937.66;108407;1274;22652;-73
2024/03/29 10:27:48;;;;;;;0.30;0.30;;;;;;;14.82;38.13;95934.79;108344;1278;22533;-73
2024/03/29 10:30:21;;;;;;;0.90;0.40;;;;;;;15.07;38.54;95937.08;108388;1276;24378;-73
2024/03/29 10:32:51;;;;;;;0.80;0.20;;;;;;;15.33;38.36;95935.57;108378;1277;22570;-72
2024/03/29 10:35:22;;;;;;;0.40;0.40;;;;;;;15.22;37.65;95927.05;108372;1277;25336;-72
2024/03/29 10:37:54;;;;;;;1.00;0.50;;;;;;;15.09;38.43;95925.61;108351;1277;22533;-72
2024/03/29 10:40:26;;;;;;;0.40;0.30;;;;;;;15.20;39.04;95927.29;108334;1271;24082;-73
2024/03/29 10:43:06;;;;;;;1.90;0.30;;;;;;;15.48;39.54;95919.15;108358;1278;24247;-73
2024/03/29 10:45:37;;;;;;;1.30;0.30;;;;;;;15.59;37.88;95929.20;108401;1278;23727;-72
2024/03/29 10:48:12;;;;;;;1.30;0.20;;;;;;;15.50;38.20;95917.11;108412;1275;22551;-73
2024/03/29 10:50:50;;;;;;;1.10;0.40;;;;;;;15.56;38.44;95918.46;108368;1278;22575;-73
2024/03/29 10:53:21;;;;;;;0.60;0.30;;;;;;;15.58;37.93;95909.08;108374;1277;22583;-73
2024/03/29 10:55:58;;;;;;;0.40;0.30;;;;;;;15.57;38.23;95917.22;108290;1272;22528;-72
2024/03/29 10:58:36;;;;;;;0.30;0.20;;;;;;;15.67;38.53;95917.96;108392;1278;23287;-73
2024/03/29 11:01:08;;;;;;;0.90;0.40;;;;;;;15.84;38.09;95904.45;108383;1271;22525;-72
2024/03/29 11:03:51;;;;;;;0.50;0.20;;;;;;;15.97;36.49;95883.91;108417;1277;22522;-72
2024/03/29 11:06:24;;;;;;;0.70;0.10;;;;;;;15.94;35.43;95896.96;108344;1278;22601;-73
2024/03/29 11:09:00;;;;;;;0.20;0.10;;;;;;;16.02;35.17;95893.16;108430;1278;22523;-73
2024/03/29 11:11:36;;;;;;;0.10;0.10;;;;;;;16.08;33.97;95874.65;108405;1278;22653;-72
2024/03/29 11:14:15;;;;;;;0.20;0.20;;;;;;;15.94;33.94;95879.73;108347;1274;22526;-73
2024/03/29 11:16:48;;;;;;;0.80;0.10;;;;;;;15.95;34.58;95879.20;108422;1278;22656;-73
2024/03/29 11:19:22;;;;;;;0.30;0.20;;;;;;;16.04;33.98;95863.27;108407;1276;22589;-72
2024/03/29 11:21:53;;;;;;;0.60;0.20;;;;;;;15.97;33.03;95860.45;108432;1277;22535;-73
2024/03/29 11:24:28;;;;;;;0.50;0.10;;;;;;;16.03;33.83;95853.85;108436;1278;22525;-73
2024/03/29 11:26:58;;;;;;;1.10;0.10;;;;;;;16.16;34.21;95851.77;108349;1272;28200;-73
2024/03/29 11:29:40;;;;;;;0.70;0.20;;;;;;;16.28;33.65;95845.41;108384;1277;22540;-73
2024/03/29 11:32:13;;;;;;;0.50;0.30;;;;;;;16.37;32.76;95834.71;108367;1271;25345;-73
2024/03/29 11:34:47;;;;;;;0.60;0.10;;;;;;;16.41;32.77;95827.89;108340;1272;23818;-73
2024/03/29 11:37:19;;;;;;;1.50;0.20;;;;;;;16.32;30.74;95812.01;108299;1257;22539;-73
2024/03/29 11:39:55;;;;;;;0.50;0.20;;;;;;;16.21;30.76;95821.30;108339;1279;23763;-72
2024/03/29 11:42:45;;;;;;;0.60;0.20;;;;;;;16.23;31.36;95818.61;108249;1279;22539;-72
2024/03/29 11:45:18;;;;;;;0.40;0.10;;;;;;;16.22;30.57;95818.05;108310;1279;24234;-73
2024/03/29 11:47:49;;;;;;;0.40;0.00;;;;;;;16.28;31.96;95830.07;108292;1279;22523;-74
2024/03/29 11:50:20;;;;;;;0.80;0.20;;;;;;;16.40;31.31;95820.06;108289;1271;22540;-74
2024/03/29 11:52:53;;;;;;;1.50;0.40;;;;;;;16.37;31.77;95810.10;108307;1275;22538;-74
2024/03/29 11:55:26;;;;;;;1.30;0.20;;;;;;;16.43;31.63;95811.11;108332;1278;23697;-76
2024/03/29 11:57:58;;;;;;;0.40;0.10;;;;;;;16.44;30.64;95788.84;108311;1276;26538;-76
2024/03/29 12:00:32;;;;;;;0.40;0.10;;;;;;;16.42;31.22;95796.80;108354;1272;26573;-76
2024/03/29 12:03:06;;;;;;;0.10;0.00;;;;;;;16.50;31.33;95789.56;108422;1276;22521;-76